Time;durP1;ratioP1;P1;durP2;ratioP2;P2;SDS_P1;SDS_P2;PMS_P1;PMS_P2;Temp;Humidity;BMP_temperature;BMP_pressure;BME280_temperature;BME280_humidity;BME280_pressure;Samples;Min_cycle;Max_cycle;Signal;HPM_P1;HPM_P2
2022/04/30 00:00:08;;;;;;;7.38;5.18;;;6.30;95.00;;;;;;5043284;28;20362;-80
2022/04/30 00:02:34;;;;;;;6.95;4.80;;;6.30;93.40;;;;;;5033627;28;20104;-80
2022/04/30 00:05:01;;;;;;;9.45;5.68;;;6.40;99.90;;;;;;5048883;28;20025;-80
2022/04/30 00:07:27;;;;;;;8.90;5.55;;;6.50;99.90;;;;;;5048654;28;20021;-80
2022/04/30 00:09:53;;;;;;;8.63;5.15;;;6.50;99.90;;;;;;5033253;28;20041;-80
2022/04/30 00:12:19;;;;;;;11.48;5.53;;;6.60;99.90;;;;;;5048551;28;20024;-80
2022/04/30 00:14:46;;;;;;;11.43;5.20;;;6.60;99.90;;;;;;5033202;28;20428;-80
2022/04/30 00:17:13;;;;;;;8.38;5.38;;;6.70;99.80;;;;;;5065069;28;20041;-80
2022/04/30 00:19:38;;;;;;;9.32;5.28;;;6.80;99.90;;;;;;5053213;28;20078;-80
2022/04/30 00:22:54;;;;;;;11.80;5.75;;;6.90;97.90;;;;;;5035558;28;20017;-80
2022/04/30 00:25:21;;;;;;;9.45;4.80;;;7.00;90.10;;;;;;5053165;28;20025;-80
2022/04/30 00:31:09;;;;;;;11.75;5.28;;;7.20;72.60;;;;;;5033419;28;20385;-80
2022/04/30 00:36:57;;;;;;;8.13;5.35;;;7.30;68.10;;;;;;5053072;28;20048;-80
2022/04/30 00:39:23;;;;;;;6.75;4.45;;;7.40;70.80;;;;;;5053184;28;20032;-80
2022/04/30 00:41:49;;;;;;;9.43;5.53;;;7.40;63.60;;;;;;5052267;28;20021;-81
2022/04/30 00:44:18;;;;;;;8.07;5.35;;;7.40;64.20;;;;;;5035485;28;20017;-79
2022/04/30 00:46:44;;;;;;;10.38;4.88;;;7.40;61.30;;;;;;5053115;28;20033;-80
2022/04/30 00:49:09;;;;;;;8.27;4.85;;;7.50;45.00;;;;;;5054873;28;20044;-80
2022/04/30 00:51:38;;;;;;;7.38;4.38;;;7.50;26.10;;;;;;5038893;28;20017;-80
2022/04/30 00:54:06;;;;;;;6.88;4.82;;;7.60;14.20;;;;;;5056180;28;20776;-80
2022/04/30 00:56:51;;;;;;;9.35;4.35;;;7.70;8.40;;;;;;5055149;28;20079;-80
2022/04/30 00:59:18;;;;;;;12.75;5.15;;;7.70;1.00;;;;;;5056317;28;20111;-80
2022/04/30 01:01:48;;;;;;;6.53;4.53;;;7.70;1.00;;;;;;5056339;28;20096;-80
2022/04/30 01:04:14;;;;;;;6.32;4.20;;;7.80;1.00;;;;;;5038401;28;20025;-81
2022/04/30 01:06:55;;;;;;;5.65;3.78;;;7.80;1.00;;;;;;5057009;28;20028;-80
2022/04/30 01:09:34;;;;;;;6.95;4.38;;;7.80;1.00;;;;;;5056398;28;20088;-80
2022/04/30 01:12:04;;;;;;;9.55;3.88;;;7.80;1.00;;;;;;5038134;28;20033;-80
2022/04/30 01:14:31;;;;;;;8.65;4.68;;;7.90;1.00;;;;;;5067337;28;20035;-80
2022/04/30 01:17:05;;;;;;;5.43;3.95;;;7.90;1.00;;;;;;5076057;28;20391;-80
2022/04/30 01:19:36;;;;;;;7.85;4.57;;;7.90;1.00;;;;;;5056512;28;20362;-79
2022/04/30 01:22:08;;;;;;;6.88;4.03;;;7.90;1.00;;;;;;5056256;28;20060;-80
2022/04/30 01:24:35;;;;;;;8.60;4.32;;;7.90;1.00;;;;;;5036537;28;20049;-80
2022/04/30 01:27:01;;;;;;;7.85;4.65;;;7.90;1.00;;;;;;5035958;28;20076;-80
2022/04/30 01:39:32;;;;;;;10.68;4.60;;;7.90;1.00;;;;;;5055931;28;20070;-80
2022/04/30 01:42:11;;;;;;;9.52;4.50;;;7.90;1.00;;;;;;5055694;28;20112;-80
2022/04/30 01:44:41;;;;;;;8.63;4.10;;;7.90;1.00;;;;;;5055543;28;20040;-80
2022/04/30 01:47:07;;;;;;;6.72;4.05;;;8.00;1.00;;;;;;5038671;28;20036;-80
2022/04/30 01:49:33;;;;;;;5.95;4.22;;;8.00;1.00;;;;;;5037566;28;20036;-80
2022/04/30 01:51:58;;;;;;;9.77;4.63;;;8.00;1.00;;;;;;5037550;28;20021;-80
2022/04/30 01:54:24;;;;;;;9.52;4.43;;;8.00;1.00;;;;;;5055451;28;20472;-80
2022/04/30 01:56:49;;;;;;;6.63;4.47;;;8.00;1.00;;;;;;5055108;28;20094;-80
2022/04/30 01:59:15;;;;;;;5.78;3.85;;;8.00;1.00;;;;;;5055097;28;20028;-80
2022/04/30 02:01:43;;;;;;;6.72;3.97;;;8.00;1.00;;;;;;5036503;28;20049;-80
2022/04/30 02:04:09;;;;;;;7.22;4.18;;;8.00;1.00;;;;;;5055056;28;20025;-80
2022/04/30 02:06:35;;;;;;;8.65;4.40;;;8.00;1.00;;;;;;5055332;28;20023;-79
2022/04/30 02:09:00;;;;;;;6.97;5.05;;;8.00;1.00;;;;;;5037882;28;20025;-80
2022/04/30 02:11:26;;;;;;;7.60;4.32;;;8.00;1.00;;;;;;5017215;28;20025;-80
2022/04/30 02:13:56;;;;;;;9.35;4.68;;;8.00;1.00;;;;;;5017542;28;20480;-81
2022/04/30 02:16:23;;;;;;;11.30;4.90;;;7.90;1.00;;;;;;5034906;28;20034;-80
2022/04/30 02:18:50;;;;;;;7.35;4.68;;;7.90;1.00;;;;;;5034679;28;20057;-80
2022/04/30 02:21:20;;;;;;;8.50;5.10;;;7.80;1.00;;;;;;5000877;28;20022;-80
2022/04/30 02:23:48;;;;;;;6.72;4.80;;;7.80;1.00;;;;;;5034969;28;20079;-81
2022/04/30 02:26:18;;;;;;;7.18;4.20;;;7.80;1.00;;;;;;5034743;28;20026;-81
2022/04/30 02:28:44;;;;;;;10.13;5.87;;;7.80;1.00;;;;;;5046798;28;20021;-80
2022/04/30 02:31:22;;;;;;;6.18;4.45;;;7.90;1.00;;;;;;5034869;28;20255;-80
2022/04/30 02:33:48;;;;;;;8.00;4.80;;;7.90;1.00;;;;;;5034993;28;20026;-80
2022/04/30 02:36:15;;;;;;;5.43;4.70;;;8.00;1.00;;;;;;5034452;28;20041;-80
2022/04/30 02:38:41;;;;;;;7.38;4.65;;;7.90;1.00;;;;;;5034920;28;20022;-80
2022/04/30 02:41:07;;;;;;;10.20;5.50;;;7.90;1.00;;;;;;5017362;28;20026;-80
2022/04/30 02:43:33;;;;;;;7.47;4.88;;;7.90;1.00;;;;;;5033135;28;20060;-80
2022/04/30 02:45:58;;;;;;;11.95;5.55;;;7.90;1.00;;;;;;5034291;28;20381;-80
2022/04/30 02:48:24;;;;;;;8.05;4.93;;;7.90;1.00;;;;;;5033622;28;20021;-80
2022/04/30 02:50:53;;;;;;;7.03;4.63;;;7.90;1.00;;;;;;5033004;28;20018;-80
2022/04/30 02:53:19;;;;;;;9.20;5.00;;;7.90;1.00;;;;;;5034544;28;20351;-80
2022/04/30 02:55:44;;;;;;;7.65;4.97;;;7.90;1.00;;;;;;5034074;28;20028;-80
2022/04/30 03:00:57;;;;;;;8.55;5.22;;;7.80;1.00;;;;;;5034474;28;20032;-80
2022/04/30 03:06:54;;;;;;;7.15;4.70;;;7.70;17.90;;;;;;5034415;28;20038;-80
2022/04/30 03:09:20;;;;;;;8.27;5.22;;;7.50;32.30;;;;;;5049204;28;20484;-80
2022/04/30 03:11:46;;;;;;;6.72;4.88;;;7.40;40.30;;;;;;5033839;28;20048;-81
2022/04/30 03:14:13;;;;;;;6.97;5.20;;;7.30;40.10;;;;;;5049604;28;20028;-80
2022/04/30 03:22:07;;;;;;;7.47;4.68;;;6.90;63.20;;;;;;5053739;28;20087;-80
2022/04/30 03:24:33;;;;;;;9.30;5.20;;;6.70;83.40;;;;;;5052518;28;20393;-81
2022/04/30 03:26:58;;;;;;;9.15;5.20;;;6.80;99.90;;;;;;5052385;28;20024;-80
2022/04/30 03:29:24;;;;;;;10.35;4.90;;;6.90;98.70;;;;;;5052677;28;20379;-80
2022/04/30 03:31:49;;;;;;;10.75;5.10;;;6.90;93.50;;;;;;5053915;28;20761;-81
2022/04/30 03:34:15;;;;;;;8.65;5.00;;;6.60;94.70;;;;;;5053833;28;20028;-80
2022/04/30 03:36:43;;;;;;;13.32;5.68;;;6.50;99.90;;;;;;5053947;28;20025;-81
2022/04/30 03:39:09;;;;;;;11.65;5.90;;;6.60;99.90;;;;;;5052596;28;20021;-81
2022/04/30 03:41:35;;;;;;;10.98;5.57;;;6.60;99.90;;;;;;5052768;28;20017;-81
2022/04/30 03:44:02;;;;;;;7.10;5.30;;;6.60;99.90;;;;;;5053486;28;20361;-81
2022/04/30 03:46:28;;;;;;;9.45;5.10;;;6.60;99.90;;;;;;5052120;28;20111;-81
2022/04/30 03:48:53;;;;;;;9.52;5.40;;;6.70;99.90;;;;;;5053665;28;20049;-81
2022/04/30 03:51:25;;;;;;;8.18;4.78;;;6.80;99.90;;;;;;5053333;28;20021;-80
2022/04/30 03:53:53;;;;;;;8.60;5.32;;;6.90;99.90;;;;;;5052105;28;20021;-80
2022/04/30 03:56:19;;;;;;;8.73;5.82;;;6.90;99.90;;;;;;5051868;28;20041;-80
2022/04/30 03:58:47;;;;;;;9.10;5.38;;;7.00;98.80;;;;;;5053505;28;20021;-80
2022/04/30 04:01:18;;;;;;;8.60;5.32;;;6.90;96.60;;;;;;5052300;28;20512;-80
2022/04/30 04:03:45;;;;;;;7.85;5.60;;;6.90;97.50;;;;;;5053558;28;20045;-80
2022/04/30 04:06:13;;;;;;;9.18;5.78;;;6.90;78.70;;;;;;5053295;28;20021;-80
2022/04/30 04:08:39;;;;;;;15.00;8.60;;;7.00;90.10;;;;;;5053464;28;20021;-80
2022/04/30 04:11:10;;;;;;;12.38;6.55;;;7.00;95.00;;;;;;5051802;28;20461;-80
2022/04/30 04:19:10;;;;;;;10.73;6.10;;;7.10;94.10;;;;;;5053097;28;20110;-79
2022/04/30 04:21:36;;;;;;;12.98;6.90;;;7.10;94.50;;;;;;5051928;28;20419;-79
2022/04/30 04:26:56;;;;;;;9.05;6.72;;;7.10;99.10;;;;;;4980034;28;20053;-79
2022/04/30 04:29:22;;;;;;;10.88;7.40;;;7.10;99.90;;;;;;5056739;28;20037;-80
2022/04/30 04:31:48;;;;;;;12.02;6.97;;;7.10;99.90;;;;;;5056673;28;20378;-79
2022/04/30 04:34:13;;;;;;;11.15;6.82;;;7.20;99.90;;;;;;5039180;28;20395;-80
2022/04/30 04:36:39;;;;;;;13.07;8.25;;;7.20;99.90;;;;;;5039205;28;20078;-80
2022/04/30 04:39:12;;;;;;;11.68;7.47;;;7.20;99.90;;;;;;5055899;28;20480;-81
2022/04/30 04:41:38;;;;;;;14.05;7.25;;;7.20;99.90;;;;;;5056745;28;20025;-81
2022/04/30 04:44:04;;;;;;;12.57;7.55;;;7.20;99.90;;;;;;5037946;28;20029;-82
2022/04/30 04:46:29;;;;;;;15.30;8.15;;;7.10;99.90;;;;;;5046509;28;20021;-81
2022/04/30 04:48:55;;;;;;;14.95;7.15;;;7.10;99.90;;;;;;5051646;28;20520;-82
2022/04/30 04:51:21;;;;;;;12.25;7.53;;;7.00;99.90;;;;;;5029474;28;20075;-81
2022/04/30 04:53:47;;;;;;;12.77;7.40;;;6.90;99.90;;;;;;5050409;28;20087;-82
2022/04/30 04:56:13;;;;;;;13.60;7.78;;;6.90;99.90;;;;;;5026788;28;20041;-81
2022/04/30 04:58:40;;;;;;;12.80;7.50;;;6.80;99.90;;;;;;5040916;28;20033;-81
2022/04/30 05:01:06;;;;;;;15.05;8.15;;;6.80;99.90;;;;;;5036509;28;20022;-82
2022/04/30 05:03:31;;;;;;;11.70;7.60;;;6.90;99.90;;;;;;5036332;28;20017;-82
2022/04/30 05:05:57;;;;;;;12.68;7.53;;;7.10;99.90;;;;;;5041268;28;20461;-82
2022/04/30 05:08:23;;;;;;;13.63;7.40;;;7.40;99.90;;;;;;5032986;28;20037;-81
2022/04/30 05:10:48;;;;;;;14.20;7.70;;;7.70;96.60;;;;;;5040663;28;20028;-81
2022/04/30 05:13:14;;;;;;;12.02;7.47;;;8.00;59.30;;;;;;5046917;28;20021;-82
2022/04/30 05:15:40;;;;;;;11.38;5.78;;;8.40;21.40;;;;;;5049845;28;20017;-82
2022/04/30 05:18:07;;;;;;;12.88;7.53;;;8.80;1.00;;;;;;5046877;28;20060;-82
2022/04/30 05:20:33;;;;;;;12.18;7.63;;;9.40;1.00;;;;;;5035332;28;20040;-81
2022/04/30 05:22:58;;;;;;;12.25;7.53;;;10.70;1.00;;;;;;5047366;28;20029;-81
2022/04/30 05:25:24;;;;;;;11.65;7.32;;;11.90;1.00;;;;;;5033005;28;20327;-82
2022/04/30 05:27:50;;;;;;;12.25;7.13;;;12.60;99.90;;;;;;5043338;28;20087;-81
2022/04/30 05:30:15;;;;;;;12.20;6.68;;;12.20;99.90;;;;;;5040232;28;20033;-81
2022/04/30 05:32:41;;;;;;;13.73;6.60;;;12.00;99.90;;;;;;5052271;28;20373;-81
2022/04/30 05:35:07;;;;;;;13.45;6.82;;;11.70;99.90;;;;;;5033496;28;20045;-80
2022/04/30 05:37:32;;;;;;;10.75;6.32;;;13.00;99.90;;;;;;5043319;28;20029;-81
2022/04/30 05:39:58;;;;;;;12.38;7.20;;;14.20;99.90;;;;;;5049391;28;20506;-80
2022/04/30 05:42:24;;;;;;;12.95;7.35;;;14.80;99.90;;;;;;5053162;28;20029;-81
2022/04/30 05:44:50;;;;;;;11.25;5.75;;;14.90;99.90;;;;;;5051350;28;20029;-80
2022/04/30 05:47:17;;;;;;;11.80;7.13;;;13.50;99.90;;;;;;5055901;28;20098;-80
2022/04/30 05:49:42;;;;;;;8.85;5.85;;;12.00;99.90;;;;;;5055408;28;20438;-81
2022/04/30 05:52:08;;;;;;;11.18;6.95;;;11.10;1.00;;;;;;5055727;28;20029;-82
2022/04/30 05:54:33;;;;;;;11.85;5.93;;;10.50;1.00;;;;;;5055555;28;20082;-81
2022/04/30 05:57:02;;;;;;;11.65;6.78;;;10.30;1.00;;;;;;5055999;28;20028;-81
2022/04/30 05:59:27;;;;;;;11.23;6.35;;;10.10;1.00;;;;;;5055911;28;20418;-80
2022/04/30 06:01:53;;;;;;;10.63;7.18;;;10.00;1.00;;;;;;5055063;28;20755;-81
2022/04/30 06:04:18;;;;;;;9.70;6.90;;;9.90;1.00;;;;;;5055164;28;20082;-81
2022/04/30 06:06:44;;;;;;;9.10;7.13;;;9.80;1.00;;;;;;5054976;28;20024;-81
2022/04/30 06:09:10;;;;;;;12.93;7.28;;;9.70;1.00;;;;;;5053714;28;20021;-82
2022/04/30 06:11:35;;;;;;;9.85;7.18;;;9.70;6.20;;;;;;5041249;28;20037;-82
2022/04/30 06:14:01;;;;;;;10.20;7.15;;;9.70;1.00;;;;;;5030954;28;20031;-82
2022/04/30 06:16:26;;;;;;;11.93;7.05;;;9.70;1.00;;;;;;5050870;28;20021;-82
2022/04/30 06:18:52;;;;;;;10.07;6.43;;;9.70;1.00;;;;;;5043124;28;20159;-81
2022/04/30 06:21:18;;;;;;;11.45;7.10;;;9.70;1.00;;;;;;5051128;28;20506;-82
2022/04/30 06:23:43;;;;;;;9.20;6.55;;;9.60;1.00;;;;;;5066618;28;20451;-83
2022/04/30 06:26:09;;;;;;;11.63;6.70;;;9.70;1.00;;;;;;5049961;28;20111;-82
2022/04/30 06:28:35;;;;;;;10.48;6.85;;;9.80;1.00;;;;;;5049492;28;20396;-81
2022/04/30 06:31:03;;;;;;;10.38;7.25;;;9.80;1.00;;;;;;5048961;28;20020;-82
2022/04/30 06:33:30;;;;;;;13.57;6.60;;;9.90;1.00;;;;;;5066291;28;20024;-82
2022/04/30 06:35:55;;;;;;;11.18;6.88;;;10.10;1.00;;;;;;5046936;28;20502;-82
2022/04/30 06:38:21;;;;;;;8.55;6.40;;;10.10;1.00;;;;;;5048963;28;20017;-83
2022/04/30 06:40:48;;;;;;;11.00;5.63;;;10.30;1.00;;;;;;5066731;28;20033;-81
2022/04/30 06:43:13;;;;;;;9.55;5.85;;;10.40;1.00;;;;;;5032018;28;20041;-83
2022/04/30 06:45:39;;;;;;;8.50;5.60;;;10.40;1.00;;;;;;5031613;28;20026;-83
2022/04/30 06:48:05;;;;;;;8.55;5.82;;;10.80;1.00;;;;;;5047145;28;20025;-84
2022/04/30 06:50:30;;;;;;;8.63;5.65;;;11.30;1.00;;;;;;5031528;28;20053;-84
2022/04/30 06:58:25;;;;;;;6.47;4.55;;;12.60;99.90;;;;;;5046468;28;20115;-82
2022/04/30 07:03:24;;;;;;;8.88;5.15;;;13.30;99.90;;;;;;5045584;28;20029;-83
2022/04/30 07:05:51;;;;;;;6.90;5.25;;;13.80;99.90;;;;;;5061862;28;20468;-82
2022/04/30 07:08:17;;;;;;;8.73;5.32;;;13.80;99.90;;;;;;5060508;28;20029;-83
2022/04/30 07:10:42;;;;;;;7.10;5.38;;;13.90;99.90;;;;;;5050713;28;20473;-82
2022/04/30 07:13:08;;;;;;;8.27;5.32;;;13.90;99.90;;;;;;5063093;28;20033;-83
2022/04/30 07:15:33;;;;;;;9.60;5.85;;;14.40;99.90;;;;;;5031682;28;20037;-84
2022/04/30 07:17:59;;;;;;;6.70;4.40;;;14.80;99.90;;;;;;5038103;28;20121;-84
2022/04/30 07:20:24;;;;;;;9.00;5.13;;;15.20;99.90;;;;;;5038004;28;20120;-83
2022/04/30 07:22:50;;;;;;;9.30;5.20;;;15.60;99.90;;;;;;5043025;28;20117;-84
2022/04/30 07:25:16;;;;;;;6.72;5.18;;;15.90;99.90;;;;;;5031282;28;20064;-83
2022/04/30 07:27:41;;;;;;;6.78;4.47;;;16.00;99.90;;;;;;5051522;28;20112;-82
2022/04/30 07:30:07;;;;;;;8.80;4.95;;;18.00;99.90;;;;;;5047979;28;20116;-82
2022/04/30 07:32:33;;;;;;;8.48;5.32;;;19.90;99.90;;;;;;5031197;28;20374;-83
2022/04/30 07:34:58;;;;;;;7.22;4.90;;;19.90;99.90;;;;;;5040821;28;20136;-83
2022/04/30 07:37:24;;;;;;;8.52;4.68;;;25.40;99.90;;;;;;5064667;28;20036;-84
2022/04/30 07:39:49;;;;;;;4.93;2.50;;;28.10;99.90;;;;;;5049591;28;20032;-82
2022/04/30 07:42:15;;;;;;;6.25;3.92;;;23.50;99.90;;;;;;5064038;28;20074;-83
2022/04/30 07:44:41;;;;;;;4.97;2.33;;;23.20;99.90;;;;;;5058329;28;20021;-82
2022/04/30 07:47:06;;;;;;;6.07;3.45;;;23.90;99.90;;;;;;5050870;28;20395;-83
2022/04/30 07:49:32;;;;;;;6.15;3.72;;;21.20;99.90;;;;;;5049606;28;20021;-82
2022/04/30 07:51:58;;;;;;;8.63;4.20;;;19.50;99.90;;;;;;5048765;28;20025;-83
2022/04/30 07:54:25;;;;;;;6.03;4.25;;;18.50;99.90;;;;;;5059776;28;20025;-83
2022/04/30 07:56:53;;;;;;;6.18;4.20;;;17.70;99.90;;;;;;5048592;28;20025;-81
2022/04/30 07:59:19;;;;;;;7.60;3.13;;;16.80;99.90;;;;;;5048193;28;20079;-82
2022/04/30 08:01:44;;;;;;;5.57;3.17;;;15.10;99.90;;;;;;5064056;28;20033;-82
2022/04/30 08:04:10;;;;;;;4.78;2.30;;;14.40;99.90;;;;;;5050603;28;20550;-82
2022/04/30 08:06:35;;;;;;;4.88;2.60;;;13.50;99.90;;;;;;5036689;28;20132;-83
2022/04/30 08:09:01;;;;;;;3.65;2.92;;;13.00;99.90;;;;;;5053315;28;20102;-81
2022/04/30 08:11:27;;;;;;;4.20;2.97;;;12.70;99.90;;;;;;5049738;28;20053;-83
2022/04/30 08:13:53;;;;;;;5.28;3.20;;;12.60;99.90;;;;;;5064209;28;20036;-83
2022/04/30 08:16:18;;;;;;;5.57;3.00;;;12.10;99.90;;;;;;5041154;28;20025;-83
2022/04/30 08:18:44;;;;;;;5.30;2.53;;;11.90;99.90;;;;;;5049726;28;20064;-82
2022/04/30 08:21:09;;;;;;;6.75;3.75;;;11.50;99.90;;;;;;5032764;28;20032;-82
2022/04/30 08:23:36;;;;;;;6.65;4.10;;;11.80;99.90;;;;;;5074490;28;20035;-83
2022/04/30 08:26:03;;;;;;;7.78;4.13;;;11.90;99.90;;;;;;5035300;28;20033;-82
2022/04/30 08:28:29;;;;;;;6.32;3.80;;;11.80;99.90;;;;;;5065905;28;20021;-82
2022/04/30 08:30:54;;;;;;;4.53;3.67;;;11.70;99.90;;;;;;5041716;28;20396;-82
2022/04/30 08:33:20;;;;;;;2.85;2.47;;;11.50;99.90;;;;;;5050101;28;20029;-82
2022/04/30 08:35:46;;;;;;;4.30;3.10;;;11.50;99.90;;;;;;5034610;28;20048;-82
2022/04/30 08:38:12;;;;;;;4.90;3.25;;;11.50;99.90;;;;;;5066274;28;20080;-81
2022/04/30 08:40:41;;;;;;;3.88;2.90;;;11.50;99.90;;;;;;5055971;28;20021;-82
2022/04/30 08:43:13;;;;;;;8.18;3.40;;;11.80;99.90;;;;;;5055757;28;20365;-81
2022/04/30 08:45:41;;;;;;;5.43;2.88;;;11.70;99.90;;;;;;5056264;28;20021;-82
2022/04/30 08:48:08;;;;;;;4.90;3.13;;;11.80;99.90;;;;;;5058440;28;20033;-82
2022/04/30 08:50:35;;;;;;;3.08;2.33;;;12.00;99.90;;;;;;5066380;28;20099;-82
2022/04/30 08:53:00;;;;;;;1.83;1.73;;;12.00;99.90;;;;;;5051144;28;20025;-82
2022/04/30 08:55:26;;;;;;;2.70;2.17;;;12.00;99.90;;;;;;5051513;28;20361;-82
2022/04/30 08:57:52;;;;;;;3.28;2.13;;;12.10;99.90;;;;;;5048014;28;20025;-82
2022/04/30 09:00:19;;;;;;;5.70;2.58;;;12.30;99.90;;;;;;5065209;28;20104;-82
2022/04/30 09:02:53;;;;;;;3.70;1.70;;;12.50;99.90;;;;;;5066551;28;20384;-82
2022/04/30 09:05:20;;;;;;;3.00;2.70;;;12.70;99.90;;;;;;5049585;28;20036;-81
2022/04/30 09:07:53;;;;;;;3.10;2.13;;;12.90;99.90;;;;;;5067953;28;20106;-81
2022/04/30 09:10:31;;;;;;;5.00;2.67;;;13.10;99.90;;;;;;5067824;28;20052;-82
2022/04/30 09:13:13;;;;;;;3.65;2.30;;;13.30;99.90;;;;;;5044624;28;20021;-81
2022/04/30 09:15:40;;;;;;;5.53;2.83;;;13.60;99.90;;;;;;5051971;28;20036;-82
2022/04/30 09:18:08;;;;;;;4.25;2.70;;;13.70;99.90;;;;;;5058989;28;20095;-82
2022/04/30 09:20:51;;;;;;;3.83;2.60;;;14.00;99.90;;;;;;5060626;28;20032;-81
2022/04/30 09:23:26;;;;;;;5.68;2.85;;;14.40;99.90;;;;;;5049009;28;20037;-84
2022/04/30 09:25:57;;;;;;;5.32;3.00;;;14.40;99.90;;;;;;5059053;28;20435;-82
2022/04/30 09:28:34;;;;;;;4.95;2.92;;;14.40;99.90;;;;;;5053969;28;20451;-81
2022/04/30 09:31:20;;;;;;;4.60;3.10;;;14.50;99.90;;;;;;5055110;28;20102;-81
2022/04/30 09:33:57;;;;;;;4.45;3.33;;;14.90;99.90;;;;;;5055697;28;20100;-81
2022/04/30 09:39:20;;;;;;;4.70;3.17;;;15.20;99.90;;;;;;5055228;28;20388;-81
2022/04/30 09:41:46;;;;;;;5.50;3.03;;;14.70;99.90;;;;;;5044572;28;20489;-82
2022/04/30 09:44:13;;;;;;;4.30;3.28;;;14.80;99.90;;;;;;5051447;28;20021;-82
2022/04/30 09:46:40;;;;;;;4.18;2.80;;;15.30;99.90;;;;;;5048222;28;20369;-82
2022/04/30 09:54:40;;;;;;;3.47;2.60;;;15.60;99.90;;;;;;5047976;28;20082;-82
2022/04/30 09:57:07;;;;;;;3.42;2.33;;;16.00;99.90;;;;;;5031326;28;20033;-82
2022/04/30 09:59:35;;;;;;;6.65;2.60;;;15.80;99.90;;;;;;5062952;28;20036;-82
2022/04/30 10:02:06;;;;;;;3.72;2.50;;;15.70;99.90;;;;;;5031477;28;20030;-82
2022/04/30 10:04:34;;;;;;;3.20;2.28;;;15.60;99.90;;;;;;5032638;28;20449;-82
2022/04/30 10:07:01;;;;;;;4.70;2.55;;;15.00;99.90;;;;;;5049263;28;20086;-82
2022/04/30 10:09:46;;;;;;;3.40;2.60;;;15.10;99.90;;;;;;5061171;28;20571;-82
2022/04/30 10:12:32;;;;;;;3.35;2.40;;;15.10;99.90;;;;;;5067018;28;20031;-82
2022/04/30 10:15:18;;;;;;;4.35;2.72;;;14.60;99.90;;;;;;5047253;28;20384;-82
2022/04/30 10:17:46;;;;;;;3.55;2.72;;;14.20;99.90;;;;;;5052664;28;20077;-81
2022/04/30 10:20:17;;;;;;;2.90;2.47;;;14.90;99.90;;;;;;5070381;28;20059;-81
2022/04/30 10:22:57;;;;;;;2.22;2.03;;;14.80;99.90;;;;;;5054502;28;20513;-81
2022/04/30 10:25:46;;;;;;;4.15;2.22;;;14.10;99.90;;;;;;5036450;28;20025;-82
2022/04/30 10:28:15;;;;;;;3.08;2.63;;;14.00;99.90;;;;;;5047229;28;20033;-82
2022/04/30 10:30:42;;;;;;;4.22;2.30;;;14.30;99.90;;;;;;5044481;28;20029;-82
2022/04/30 10:33:09;;;;;;;4.32;2.33;;;14.20;99.90;;;;;;5048922;28;20032;-82
2022/04/30 10:35:37;;;;;;;2.58;2.10;;;14.00;99.90;;;;;;5067035;28;20067;-82
2022/04/30 10:38:16;;;;;;;3.10;2.22;;;14.10;99.90;;;;;;5058859;28;20473;-82
2022/04/30 10:40:47;;;;;;;4.47;2.35;;;14.30;99.90;;;;;;5065390;28;20086;-83
2022/04/30 10:43:16;;;;;;;6.18;2.60;;;14.20;99.90;;;;;;5065293;28;20112;-82
2022/04/30 10:45:42;;;;;;;3.50;2.45;;;14.60;99.90;;;;;;5049372;28;20021;-83
2022/04/30 10:48:09;;;;;;;3.03;2.72;;;14.20;99.90;;;;;;5048414;28;20043;-82
2022/04/30 10:50:34;;;;;;;3.10;2.55;;;14.40;99.90;;;;;;5046454;28;20033;-82
2022/04/30 10:53:01;;;;;;;3.97;2.15;;;14.50;99.90;;;;;;5050083;28;20380;-82
2022/04/30 10:55:27;;;;;;;5.47;2.30;;;14.40;99.90;;;;;;5057250;28;20036;-83
2022/04/30 10:57:54;;;;;;;8.48;4.88;;;14.40;99.90;;;;;;5050081;28;20436;-82
2022/04/30 11:00:21;;;;;;;6.22;4.53;;;14.60;99.90;;;;;;5049236;28;20543;-82
2022/04/30 11:02:47;;;;;;;4.75;3.67;;;14.60;99.90;;;;;;5033449;28;20333;-82
2022/04/30 11:05:24;;;;;;;6.88;4.80;;;14.20;99.90;;;;;;5050094;28;20029;-82
2022/04/30 11:07:51;;;;;;;6.88;4.05;;;13.70;99.90;;;;;;5046836;28;20026;-82
2022/04/30 11:10:17;;;;;;;6.68;4.22;;;13.90;99.90;;;;;;5054966;28;20030;-82
2022/04/30 11:12:43;;;;;;;7.35;4.78;;;14.00;99.90;;;;;;5031713;28;20032;-82
2022/04/30 11:15:11;;;;;;;8.95;4.50;;;13.50;99.90;;;;;;5046540;28;20384;-82
2022/04/30 11:17:47;;;;;;;6.07;4.22;;;13.50;99.90;;;;;;5054835;28;20481;-82
2022/04/30 11:20:23;;;;;;;6.82;4.55;;;13.30;99.90;;;;;;5035200;28;20472;-82
2022/04/30 11:22:57;;;;;;;8.18;4.80;;;13.20;99.90;;;;;;5040735;28;20025;-82
2022/04/30 11:25:32;;;;;;;7.22;4.72;;;13.20;99.90;;;;;;5058010;28;20033;-83
2022/04/30 11:27:58;;;;;;;8.18;4.95;;;13.20;99.90;;;;;;5049457;28;20028;-84
2022/04/30 11:30:24;;;;;;;10.35;6.15;;;13.00;99.90;;;;;;5041437;28;20033;-85
2022/04/30 11:32:50;;;;;;;9.20;6.40;;;13.40;99.90;;;;;;5030128;28;20036;-83
2022/04/30 11:35:16;;;;;;;10.00;6.13;;;13.60;99.90;;;;;;5057239;28;20068;-83
2022/04/30 11:37:43;;;;;;;9.98;6.13;;;13.30;99.90;;;;;;5051279;28;20032;-83
2022/04/30 11:40:09;;;;;;;10.45;6.40;;;13.60;99.90;;;;;;5047221;28;20484;-84
2022/04/30 11:42:35;;;;;;;9.73;6.75;;;13.10;99.90;;;;;;5050650;28;20036;-84
2022/04/30 11:45:01;;;;;;;12.73;6.78;;;13.00;99.90;;;;;;5050158;28;20025;-84
2022/04/30 11:47:27;;;;;;;12.30;7.80;;;12.70;99.90;;;;;;5046355;28;20025;-84
2022/04/30 11:50:10;;;;;;;10.48;7.53;;;13.00;99.90;;;;;;5052383;28;20530;-84
2022/04/30 11:52:36;;;;;;;11.82;7.95;;;12.80;99.90;;;;;;5046654;28;20034;-84
2022/04/30 11:55:04;;;;;;;13.63;7.93;;;12.70;99.90;;;;;;5030193;28;20396;-83
2022/04/30 11:57:31;;;;;;;12.63;7.50;;;12.70;99.90;;;;;;5039334;28;20025;-83
2022/04/30 11:59:58;;;;;;;14.70;8.00;;;12.60;99.90;;;;;;5058250;28;20111;-84
2022/04/30 12:02:23;;;;;;;14.85;7.57;;;12.70;99.90;;;;;;5046354;28;20022;-84
2022/04/30 12:04:50;;;;;;;13.27;6.80;;;12.70;99.90;;;;;;5066425;28;20077;-83
2022/04/30 12:07:16;;;;;;;12.88;6.32;;;12.50;99.90;;;;;;5049803;28;20036;-83
2022/04/30 12:09:47;;;;;;;14.25;8.90;;;12.20;99.90;;;;;;5047977;28;20037;-84
2022/04/30 12:12:19;;;;;;;10.27;6.45;;;12.20;99.90;;;;;;5031026;28;20018;-81
2022/04/30 12:14:47;;;;;;;8.65;5.72;;;12.10;99.90;;;;;;5044302;28;20065;-81
2022/04/30 12:17:13;;;;;;;9.23;6.22;;;12.00;99.90;;;;;;5029255;28;20037;-81
2022/04/30 12:25:17;;;;;;;8.40;5.50;;;12.10;99.90;;;;;;5030584;28;20044;-81
2022/04/30 12:27:53;;;;;;;7.80;5.38;;;12.10;99.90;;;;;;5028652;28;20041;-82
2022/04/30 12:30:21;;;;;;;7.47;5.40;;;11.80;99.90;;;;;;5032731;28;20123;-82
2022/04/30 12:32:54;;;;;;;7.18;5.35;;;11.70;99.90;;;;;;5032691;28;20021;-82
2022/04/30 12:35:31;;;;;;;7.38;5.40;;;11.70;99.90;;;;;;5020757;28;20586;-82
2022/04/30 12:38:05;;;;;;;7.13;5.45;;;11.60;99.90;;;;;;5026260;28;20025;-81
2022/04/30 12:40:32;;;;;;;9.77;5.93;;;11.30;99.90;;;;;;5032059;28;20123;-82
2022/04/30 12:42:58;;;;;;;8.73;5.85;;;11.50;99.90;;;;;;5029096;28;20032;-82
2022/04/30 12:45:24;;;;;;;8.65;5.45;;;11.60;99.90;;;;;;5026434;28;20021;-82
2022/04/30 12:47:50;;;;;;;6.32;4.93;;;11.80;99.90;;;;;;5032611;28;20022;-82
2022/04/30 12:50:16;;;;;;;8.23;4.90;;;11.60;99.90;;;;;;5033056;28;20030;-82
2022/04/30 12:52:42;;;;;;;7.47;5.22;;;11.70;99.90;;;;;;5036610;28;20033;-82
2022/04/30 12:55:08;;;;;;;8.85;5.15;;;11.50;99.90;;;;;;5036349;28;20017;-81
2022/04/30 12:57:34;;;;;;;8.88;5.40;;;11.60;99.90;;;;;;5041040;28;20132;-83
2022/04/30 13:00:00;;;;;;;7.68;5.50;;;12.00;99.90;;;;;;5049452;28;20036;-82
2022/04/30 13:02:27;;;;;;;7.40;5.70;;;12.10;99.90;;;;;;5047431;28;20082;-84
2022/04/30 13:04:52;;;;;;;8.52;5.20;;;12.20;99.90;;;;;;5034042;28;20551;-84
2022/04/30 13:07:19;;;;;;;7.85;5.70;;;12.30;99.90;;;;;;5017178;28;20064;-83
2022/04/30 13:15:12;;;;;;;9.25;6.55;;;12.00;99.90;;;;;;5039740;28;20044;-83
2022/04/30 13:17:38;;;;;;;9.15;6.00;;;12.00;99.90;;;;;;5031825;28;20054;-83
2022/04/30 13:20:05;;;;;;;9.02;5.97;;;12.00;99.90;;;;;;5030595;28;20032;-82
2022/04/30 13:22:31;;;;;;;9.48;6.03;;;12.00;99.90;;;;;;5035585;28;20025;-82
2022/04/30 13:24:57;;;;;;;9.02;6.10;;;12.20;99.90;;;;;;5034727;28;20029;-83
2022/04/30 13:27:22;;;;;;;8.85;5.72;;;12.30;99.90;;;;;;5036248;28;20026;-81
2022/04/30 13:29:48;;;;;;;8.65;5.75;;;12.30;99.90;;;;;;5034849;28;20018;-84
2022/04/30 13:32:13;;;;;;;8.75;5.97;;;12.60;99.90;;;;;;5034628;28;20091;-81
2022/04/30 13:34:39;;;;;;;7.70;5.72;;;12.70;99.90;;;;;;5035655;28;20033;-81
2022/04/30 13:37:04;;;;;;;6.70;5.38;;;12.90;99.90;;;;;;5032047;28;20033;-81
2022/04/30 13:39:30;;;;;;;9.40;6.45;;;13.30;99.90;;;;;;5053044;28;20411;-82
2022/04/30 13:41:56;;;;;;;8.55;5.97;;;13.30;99.90;;;;;;5031757;28;20420;-82
2022/04/30 13:44:22;;;;;;;8.43;5.65;;;13.70;99.90;;;;;;5032170;28;20033;-82
2022/04/30 13:46:47;;;;;;;7.70;5.45;;;13.80;99.90;;;;;;5039630;28;20105;-82
2022/04/30 13:49:13;;;;;;;8.88;5.60;;;13.90;99.90;;;;;;5037912;28;20079;-82
2022/04/30 13:51:38;;;;;;;7.68;5.72;;;14.00;99.90;;;;;;5051787;28;20025;-82
2022/04/30 13:54:04;;;;;;;8.30;5.30;;;14.20;99.90;;;;;;5036521;28;20051;-81
2022/04/30 13:56:36;;;;;;;9.25;5.50;;;13.80;99.90;;;;;;5035165;28;20083;-81